N750CX KSUN-KHIO
Flight info
| Callsign | N750CX |
|---|---|
| Flight time | 1h 3m |
| Altitude | 43000 |
| Route | FLIYN1 KOURT ELKES NNIKE |
| Aircraft | C750/M-SBDE3FGHRWXY/S |
Departure
| Time | 2026-04-19 03:10 |
|---|---|
| Airport | Friedman Memorial Airport (KSUN) |
Arrival
| Time | 2026-04-19 04:13 |
|---|---|
| Airport | Portland Hillsboro Airport (KHIO) |
| Time | Latitude | Longitude | Altitude | Speed | Heading |
|---|---|---|---|---|---|
| 2026-04-19 02:57 | 43.50865 | -114.30202 | 5304 ft | 0 kts | 56° |
| 2026-04-19 03:07 | 43.50870 | -114.30193 | 5306 ft | 3 kts | 56° |
| 2026-04-19 03:07 | 43.50884 | -114.30172 | 5310 ft | 2 kts | 15° |
| 2026-04-19 03:07 | 43.50919 | -114.30201 | 5308 ft | 9 kts | 321° |
| 2026-04-19 03:07 | 43.50964 | -114.30247 | 5308 ft | 7 kts | 323° |
| 2026-04-19 03:08 | 43.51000 | -114.30283 | 5305 ft | 7 kts | 327° |
| 2026-04-19 03:08 | 43.51054 | -114.30332 | 5309 ft | 12 kts | 326° |
| 2026-04-19 03:08 | 43.51116 | -114.30383 | 5309 ft | 9 kts | 326° |
| 2026-04-19 03:08 | 43.51165 | -114.30428 | 5309 ft | 7 kts | 329° |
| 2026-04-19 03:09 | 43.51188 | -114.30424 | 5313 ft | 1 kts | 34° |
| 2026-04-19 03:09 | 43.51189 | -114.30423 | 5313 ft | 1 kts | 36° |
| 2026-04-19 03:09 | 43.51207 | -114.30377 | 5315 ft | 9 kts | 90° |
| 2026-04-19 03:09 | 43.51102 | -114.30258 | 5312 ft | 52 kts | 144° |
| 2026-04-19 03:10 | 43.50491 | -114.29670 | 5306 ft | 150 kts | 145° |
| 2026-04-19 03:10 | 43.49590 | -114.28825 | 5865 ft | 156 kts | 147° |
| 2026-04-19 03:10 | 43.48660 | -114.28049 | 6653 ft | 160 kts | 149° |
| 2026-04-19 03:10 | 43.47648 | -114.27519 | 6505 ft | 164 kts | 159° |
| 2026-04-19 03:11 | 43.46437 | -114.26919 | 6642 ft | 202 kts | 157° |
| 2026-04-19 03:11 | 43.45020 | -114.26221 | 6984 ft | 231 kts | 164° |
| 2026-04-19 03:11 | 43.43321 | -114.26484 | 7275 ft | 269 kts | 203° |
| 2026-04-19 03:11 | 43.41801 | -114.28087 | 8200 ft | 275 kts | 224° |
| 2026-04-19 03:12 | 43.40502 | -114.29938 | 9677 ft | 267 kts | 226° |
| 2026-04-19 03:12 | 43.39141 | -114.31751 | 10444 ft | 281 kts | 223° |
| 2026-04-19 03:12 | 43.37607 | -114.33600 | 10759 ft | 306 kts | 222° |
| 2026-04-19 03:12 | 43.36318 | -114.36073 | 10771 ft | 336 kts | 247° |
| 2026-04-19 03:13 | 43.35620 | -114.39114 | 11529 ft | 337 kts | 253° |
| 2026-04-19 03:13 | 43.34933 | -114.42202 | 12388 ft | 340 kts | 252° |
| 2026-04-19 03:13 | 43.34209 | -114.45309 | 13161 ft | 343 kts | 252° |
| 2026-04-19 03:13 | 43.33483 | -114.48450 | 13956 ft | 347 kts | 253° |
| 2026-04-19 03:14 | 43.32763 | -114.51630 | 14633 ft | 351 kts | 253° |
| 2026-04-19 03:14 | 43.32125 | -114.54881 | 15192 ft | 356 kts | 262° |
| 2026-04-19 03:14 | 43.32156 | -114.58280 | 15859 ft | 357 kts | 277° |
| 2026-04-19 03:14 | 43.32506 | -114.61671 | 16577 ft | 361 kts | 279° |
| 2026-04-19 03:15 | 43.32877 | -114.65096 | 17302 ft | 364 kts | 279° |
| 2026-04-19 03:15 | 43.33233 | -114.68510 | 18014 ft | 368 kts | 279° |
| 2026-04-19 03:15 | 43.33589 | -114.72012 | 18734 ft | 372 kts | 279° |
| 2026-04-19 03:15 | 43.33952 | -114.75544 | 19430 ft | 375 kts | 279° |
| 2026-04-19 03:16 | 43.34322 | -114.79105 | 20145 ft | 378 kts | 280° |
| 2026-04-19 03:16 | 43.34690 | -114.82696 | 20858 ft | 381 kts | 280° |
| 2026-04-19 03:16 | 43.35060 | -114.86317 | 21571 ft | 384 kts | 280° |
| 2026-04-19 03:16 | 43.35432 | -114.89969 | 22279 ft | 388 kts | 280° |
| 2026-04-19 03:17 | 43.35806 | -114.93651 | 22980 ft | 391 kts | 281° |
| 2026-04-19 03:17 | 43.36178 | -114.97325 | 23575 ft | 397 kts | 281° |
| 2026-04-19 03:17 | 43.36560 | -115.01104 | 24114 ft | 401 kts | 281° |
| 2026-04-19 03:17 | 43.36943 | -115.04916 | 24710 ft | 404 kts | 281° |
| 2026-04-19 03:18 | 43.37327 | -115.08747 | 25288 ft | 406 kts | 281° |
| 2026-04-19 03:18 | 43.37712 | -115.12613 | 25827 ft | 410 kts | 280° |
| 2026-04-19 03:18 | 43.38100 | -115.16507 | 26402 ft | 413 kts | 280° |
| 2026-04-19 03:18 | 43.38490 | -115.20429 | 26962 ft | 416 kts | 280° |
| 2026-04-19 03:19 | 43.38880 | -115.24384 | 27512 ft | 419 kts | 280° |
| 2026-04-19 03:19 | 43.39273 | -115.28371 | 28071 ft | 422 kts | 280° |
| 2026-04-19 03:19 | 43.39769 | -115.32301 | 28582 ft | 424 kts | 285° |
| 2026-04-19 03:19 | 43.40654 | -115.36166 | 29140 ft | 425 kts | 291° |
| 2026-04-19 03:20 | 43.41646 | -115.40017 | 29677 ft | 429 kts | 291° |
| 2026-04-19 03:20 | 43.42623 | -115.43912 | 30110 ft | 434 kts | 290° |
| 2026-04-19 03:20 | 43.43608 | -115.47852 | 30573 ft | 436 kts | 290° |
| 2026-04-19 03:20 | 43.44610 | -115.51806 | 31047 ft | 439 kts | 290° |
| 2026-04-19 03:21 | 43.45615 | -115.55770 | 31686 ft | 437 kts | 290° |
| 2026-04-19 03:21 | 43.46604 | -115.59704 | 32400 ft | 434 kts | 290° |
| 2026-04-19 03:21 | 43.47572 | -115.63571 | 33068 ft | 432 kts | 290° |
| 2026-04-19 03:21 | 43.48548 | -115.67465 | 33757 ft | 430 kts | 290° |
| 2026-04-19 03:22 | 43.49521 | -115.71343 | 34405 ft | 428 kts | 290° |
| 2026-04-19 03:22 | 43.50487 | -115.75210 | 34983 ft | 426 kts | 290° |
| 2026-04-19 03:22 | 43.51447 | -115.79062 | 35575 ft | 425 kts | 290° |
| 2026-04-19 03:22 | 43.52404 | -115.82906 | 36156 ft | 423 kts | 290° |
| 2026-04-19 03:23 | 43.53357 | -115.86737 | 36730 ft | 422 kts | 290° |
| 2026-04-19 03:23 | 43.54306 | -115.90561 | 37277 ft | 421 kts | 289° |
| 2026-04-19 03:23 | 43.55252 | -115.94379 | 37835 ft | 420 kts | 289° |
| 2026-04-19 03:23 | 43.56193 | -115.98184 | 38412 ft | 419 kts | 289° |
| 2026-04-19 03:24 | 43.57132 | -116.01985 | 38931 ft | 418 kts | 289° |
| 2026-04-19 03:24 | 43.58068 | -116.05779 | 39315 ft | 419 kts | 289° |
| 2026-04-19 03:24 | 43.59005 | -116.09586 | 39706 ft | 420 kts | 289° |
| 2026-04-19 03:24 | 43.59943 | -116.13400 | 40139 ft | 420 kts | 289° |
| 2026-04-19 03:25 | 43.60881 | -116.17226 | 40549 ft | 421 kts | 289° |
| 2026-04-19 03:25 | 43.61807 | -116.21004 | 40952 ft | 422 kts | 289° |
| 2026-04-19 03:25 | 43.62746 | -116.24845 | 41370 ft | 423 kts | 289° |
| 2026-04-19 03:25 | 43.63686 | -116.28694 | 41774 ft | 423 kts | 289° |
| 2026-04-19 03:26 | 43.64625 | -116.32550 | 42181 ft | 424 kts | 289° |
| 2026-04-19 03:26 | 43.65566 | -116.36414 | 42593 ft | 425 kts | 289° |
| 2026-04-19 03:26 | 43.66506 | -116.40287 | 43005 ft | 426 kts | 289° |
| 2026-04-19 03:27 | 43.68421 | -116.48192 | 43095 ft | 443 kts | 288° |
| 2026-04-19 03:27 | 43.70397 | -116.56376 | 43104 ft | 461 kts | 288° |
| 2026-04-19 03:28 | 43.72456 | -116.64935 | 43103 ft | 477 kts | 288° |
| 2026-04-19 03:28 | 43.74558 | -116.73709 | 43099 ft | 482 kts | 288° |
| 2026-04-19 03:29 | 43.76651 | -116.82479 | 43111 ft | 480 kts | 288° |
| 2026-04-19 03:29 | 43.78739 | -116.91263 | 43134 ft | 481 kts | 288° |
| 2026-04-19 03:30 | 43.80822 | -117.00060 | 43125 ft | 481 kts | 288° |
| 2026-04-19 03:30 | 43.82883 | -117.08797 | 43117 ft | 481 kts | 288° |
| 2026-04-19 03:31 | 43.84955 | -117.17618 | 43123 ft | 482 kts | 287° |
| 2026-04-19 03:31 | 43.87025 | -117.26463 | 43155 ft | 483 kts | 287° |
| 2026-04-19 03:32 | 43.89089 | -117.35317 | 43154 ft | 482 kts | 287° |
| 2026-04-19 03:32 | 43.91129 | -117.44106 | 43156 ft | 482 kts | 287° |
| 2026-04-19 03:33 | 43.93178 | -117.52966 | 43155 ft | 482 kts | 287° |
| 2026-04-19 03:33 | 43.95224 | -117.61852 | 43168 ft | 485 kts | 287° |
| 2026-04-19 03:34 | 43.97268 | -117.70766 | 43165 ft | 484 kts | 287° |
| 2026-04-19 03:34 | 43.99288 | -117.79608 | 43169 ft | 484 kts | 287° |
| 2026-04-19 03:35 | 44.01317 | -117.88526 | 43172 ft | 484 kts | 287° |
| 2026-04-19 03:35 | 44.03337 | -117.97445 | 43172 ft | 484 kts | 287° |
| 2026-04-19 03:36 | 44.05352 | -118.06375 | 43170 ft | 484 kts | 287° |
| 2026-04-19 03:36 | 44.07360 | -118.15313 | 43163 ft | 485 kts | 286° |
| 2026-04-19 03:37 | 44.09355 | -118.24228 | 43155 ft | 486 kts | 286° |
| 2026-04-19 03:37 | 44.11357 | -118.33211 | 43159 ft | 486 kts | 286° |
| 2026-04-19 03:38 | 44.13349 | -118.42190 | 43161 ft | 486 kts | 286° |
| 2026-04-19 03:38 | 44.15338 | -118.51192 | 43153 ft | 486 kts | 286° |
| 2026-04-19 03:39 | 44.17305 | -118.60131 | 43151 ft | 486 kts | 286° |
| 2026-04-19 03:39 | 44.19281 | -118.69148 | 43138 ft | 488 kts | 285° |
| 2026-04-19 03:40 | 44.21254 | -118.78194 | 43127 ft | 487 kts | 285° |
| 2026-04-19 03:40 | 44.23219 | -118.87236 | 43125 ft | 488 kts | 285° |
| 2026-04-19 03:41 | 44.25178 | -118.96298 | 43113 ft | 488 kts | 285° |
| 2026-04-19 03:41 | 44.27117 | -119.05300 | 43112 ft | 488 kts | 285° |
| 2026-04-19 03:42 | 44.29063 | -119.14373 | 43100 ft | 488 kts | 285° |
| 2026-04-19 03:42 | 44.31001 | -119.23450 | 43096 ft | 488 kts | 285° |
| 2026-04-19 03:43 | 44.32937 | -119.32563 | 43084 ft | 490 kts | 285° |
| 2026-04-19 03:43 | 44.34855 | -119.41619 | 43085 ft | 489 kts | 285° |
| 2026-04-19 03:44 | 44.36776 | -119.50741 | 43071 ft | 489 kts | 284° |
| 2026-04-19 03:44 | 44.38692 | -119.59872 | 43064 ft | 489 kts | 284° |
| 2026-04-19 03:45 | 44.40601 | -119.69015 | 43057 ft | 490 kts | 284° |
| 2026-04-19 03:45 | 44.42504 | -119.78165 | 43050 ft | 490 kts | 284° |
| 2026-04-19 03:46 | 44.44387 | -119.87266 | 43033 ft | 490 kts | 284° |
| 2026-04-19 03:46 | 44.46278 | -119.96442 | 43040 ft | 491 kts | 284° |
| 2026-04-19 03:47 | 44.48160 | -120.05616 | 43025 ft | 490 kts | 284° |
| 2026-04-19 03:47 | 44.50035 | -120.14801 | 43029 ft | 491 kts | 284° |
| 2026-04-19 03:48 | 44.51652 | -120.22755 | 43012 ft | 490 kts | 284° |
| 2026-04-19 03:48 | 44.53511 | -120.31935 | 42635 ft | 484 kts | 284° |
| 2026-04-19 03:48 | 44.54415 | -120.36412 | 42013 ft | 470 kts | 283° |
| 2026-04-19 03:49 | 44.55292 | -120.40763 | 41400 ft | 457 kts | 283° |
| 2026-04-19 03:49 | 44.56139 | -120.44981 | 40819 ft | 444 kts | 283° |
| 2026-04-19 03:49 | 44.56962 | -120.49092 | 40249 ft | 432 kts | 283° |
| 2026-04-19 03:49 | 44.57763 | -120.53096 | 39691 ft | 422 kts | 283° |
| 2026-04-19 03:50 | 44.58549 | -120.57035 | 39151 ft | 417 kts | 283° |
| 2026-04-19 03:50 | 44.59317 | -120.60893 | 38594 ft | 415 kts | 283° |
| 2026-04-19 03:50 | 44.60091 | -120.64794 | 38013 ft | 416 kts | 283° |
| 2026-04-19 03:50 | 44.60873 | -120.68735 | 37442 ft | 423 kts | 283° |
| 2026-04-19 03:51 | 44.61665 | -120.72737 | 36889 ft | 429 kts | 283° |
| 2026-04-19 03:51 | 44.62465 | -120.76786 | 36311 ft | 432 kts | 283° |
| 2026-04-19 03:51 | 44.63270 | -120.80857 | 35752 ft | 433 kts | 283° |
| 2026-04-19 03:51 | 44.64074 | -120.84938 | 35179 ft | 434 kts | 283° |
| 2026-04-19 03:52 | 44.64876 | -120.89028 | 34603 ft | 435 kts | 283° |
| 2026-04-19 03:52 | 44.65680 | -120.93131 | 34015 ft | 436 kts | 283° |
| 2026-04-19 03:52 | 44.66484 | -120.97238 | 33443 ft | 436 kts | 283° |
| 2026-04-19 03:52 | 44.67279 | -121.01308 | 32872 ft | 439 kts | 283° |
| 2026-04-19 03:53 | 44.68088 | -121.05466 | 32291 ft | 444 kts | 283° |
| 2026-04-19 03:53 | 44.68903 | -121.09662 | 31701 ft | 447 kts | 283° |
| 2026-04-19 03:53 | 44.69723 | -121.13886 | 31111 ft | 449 kts | 283° |
| 2026-04-19 03:53 | 44.70546 | -121.18140 | 30517 ft | 453 kts | 283° |
| 2026-04-19 03:54 | 44.71371 | -121.22415 | 29902 ft | 452 kts | 283° |
| 2026-04-19 03:54 | 44.72190 | -121.26660 | 29291 ft | 447 kts | 283° |
| 2026-04-19 03:54 | 44.72997 | -121.30854 | 28710 ft | 444 kts | 283° |
| 2026-04-19 03:54 | 44.73788 | -121.34984 | 28132 ft | 441 kts | 283° |
| 2026-04-19 03:55 | 44.74581 | -121.39131 | 27566 ft | 439 kts | 283° |
| 2026-04-19 03:55 | 44.75372 | -121.43270 | 26989 ft | 436 kts | 283° |
| 2026-04-19 03:55 | 44.76155 | -121.47376 | 26422 ft | 434 kts | 283° |
| 2026-04-19 03:55 | 44.76935 | -121.51475 | 25852 ft | 433 kts | 282° |
| 2026-04-19 03:56 | 44.77707 | -121.55550 | 25282 ft | 430 kts | 282° |
| 2026-04-19 03:56 | 44.78475 | -121.59604 | 24727 ft | 427 kts | 282° |
| 2026-04-19 03:56 | 44.79236 | -121.63631 | 24169 ft | 425 kts | 282° |
| 2026-04-19 03:56 | 44.79993 | -121.67649 | 23609 ft | 424 kts | 282° |
| 2026-04-19 03:57 | 44.80745 | -121.71642 | 23010 ft | 420 kts | 282° |
| 2026-04-19 03:57 | 44.81477 | -121.75543 | 22463 ft | 416 kts | 282° |
| 2026-04-19 03:57 | 44.82215 | -121.79479 | 21916 ft | 414 kts | 282° |
| 2026-04-19 03:57 | 44.82944 | -121.83380 | 21374 ft | 411 kts | 282° |
| 2026-04-19 03:58 | 44.83667 | -121.87255 | 20836 ft | 408 kts | 282° |
| 2026-04-19 03:58 | 44.84384 | -121.91108 | 20302 ft | 405 kts | 282° |
| 2026-04-19 03:58 | 44.85097 | -121.94940 | 19767 ft | 402 kts | 282° |
| 2026-04-19 03:58 | 44.85801 | -121.98737 | 19237 ft | 399 kts | 282° |
| 2026-04-19 03:59 | 44.86501 | -122.02519 | 18714 ft | 397 kts | 282° |
| 2026-04-19 03:59 | 44.87193 | -122.06270 | 18186 ft | 395 kts | 282° |
| 2026-04-19 03:59 | 44.87873 | -122.09957 | 17640 ft | 392 kts | 282° |
| 2026-04-19 03:59 | 44.88553 | -122.13646 | 17125 ft | 387 kts | 282° |
| 2026-04-19 04:00 | 44.89223 | -122.17298 | 16680 ft | 384 kts | 282° |
| 2026-04-19 04:00 | 44.89888 | -122.20926 | 16179 ft | 380 kts | 282° |
| 2026-04-19 04:00 | 44.90545 | -122.24525 | 15678 ft | 378 kts | 281° |
| 2026-04-19 04:00 | 44.91327 | -122.28042 | 15139 ft | 378 kts | 292° |
| 2026-04-19 04:01 | 44.92828 | -122.31079 | 14652 ft | 379 kts | 310° |
| 2026-04-19 04:01 | 44.96979 | -122.35566 | 13685 ft | 376 kts | 321° |
| 2026-04-19 04:01 | 44.99090 | -122.37716 | 13168 ft | 375 kts | 321° |
| 2026-04-19 04:02 | 45.01180 | -122.39886 | 12670 ft | 372 kts | 320° |
| 2026-04-19 04:02 | 45.03260 | -122.42049 | 12177 ft | 370 kts | 321° |
| 2026-04-19 04:02 | 45.05337 | -122.44190 | 11677 ft | 369 kts | 321° |
| 2026-04-19 04:02 | 45.07394 | -122.46307 | 11193 ft | 357 kts | 321° |
| 2026-04-19 04:03 | 45.09336 | -122.48313 | 10734 ft | 335 kts | 321° |
| 2026-04-19 04:03 | 45.11163 | -122.50209 | 10299 ft | 317 kts | 320° |
| 2026-04-19 04:03 | 45.12909 | -122.52025 | 9890 ft | 307 kts | 320° |
| 2026-04-19 04:03 | 45.14595 | -122.53777 | 9471 ft | 302 kts | 320° |
| 2026-04-19 04:04 | 45.16257 | -122.55499 | 9075 ft | 290 kts | 320° |
| 2026-04-19 04:04 | 45.17850 | -122.57153 | 8700 ft | 278 kts | 320° |
| 2026-04-19 04:04 | 45.19381 | -122.58747 | 8338 ft | 269 kts | 320° |
| 2026-04-19 04:04 | 45.20864 | -122.60293 | 7988 ft | 261 kts | 321° |
| 2026-04-19 04:05 | 45.22318 | -122.61808 | 7647 ft | 258 kts | 321° |
| 2026-04-19 04:05 | 45.23756 | -122.63307 | 7312 ft | 256 kts | 321° |
| 2026-04-19 04:05 | 45.25185 | -122.64796 | 7028 ft | 253 kts | 321° |
| 2026-04-19 04:05 | 45.26599 | -122.66272 | 6734 ft | 252 kts | 322° |
| 2026-04-19 04:06 | 45.27972 | -122.67705 | 6416 ft | 239 kts | 322° |
| 2026-04-19 04:06 | 45.29282 | -122.69070 | 6107 ft | 237 kts | 321° |
| 2026-04-19 04:06 | 45.30616 | -122.70468 | 5785 ft | 239 kts | 321° |
| 2026-04-19 04:06 | 45.31952 | -122.71867 | 5464 ft | 239 kts | 322° |
| 2026-04-19 04:07 | 45.33298 | -122.73275 | 5145 ft | 243 kts | 322° |
| 2026-04-19 04:07 | 45.34622 | -122.74659 | 4824 ft | 230 kts | 322° |
| 2026-04-19 04:07 | 45.35885 | -122.75983 | 4508 ft | 222 kts | 322° |
| 2026-04-19 04:07 | 45.37113 | -122.77271 | 4203 ft | 212 kts | 323° |
| 2026-04-19 04:08 | 45.38237 | -122.78449 | 3899 ft | 190 kts | 323° |
| 2026-04-19 04:08 | 45.39270 | -122.79525 | 3669 ft | 189 kts | 324° |
| 2026-04-19 04:08 | 45.40342 | -122.80642 | 3422 ft | 192 kts | 324° |
| 2026-04-19 04:08 | 45.41425 | -122.81773 | 3163 ft | 195 kts | 324° |
| 2026-04-19 04:09 | 45.42496 | -122.82893 | 2903 ft | 176 kts | 325° |
| 2026-04-19 04:09 | 45.43399 | -122.83839 | 2669 ft | 148 kts | 325° |
| 2026-04-19 04:09 | 45.44186 | -122.84660 | 2472 ft | 134 kts | 326° |
| 2026-04-19 04:09 | 45.44925 | -122.85431 | 2300 ft | 130 kts | 326° |
| 2026-04-19 04:10 | 45.45650 | -122.86189 | 2134 ft | 129 kts | 325° |
| 2026-04-19 04:10 | 45.46377 | -122.86951 | 1968 ft | 130 kts | 324° |
| 2026-04-19 04:10 | 45.47094 | -122.87700 | 1801 ft | 130 kts | 324° |
| 2026-04-19 04:10 | 45.47824 | -122.88463 | 1624 ft | 130 kts | 324° |
| 2026-04-19 04:11 | 45.48554 | -122.89228 | 1447 ft | 129 kts | 324° |
| 2026-04-19 04:11 | 45.49275 | -122.89983 | 1264 ft | 129 kts | 323° |
| 2026-04-19 04:11 | 45.49995 | -122.90728 | 1088 ft | 127 kts | 323° |
| 2026-04-19 04:11 | 45.50697 | -122.91470 | 916 ft | 124 kts | 323° |
| 2026-04-19 04:12 | 45.51379 | -122.92187 | 756 ft | 120 kts | 324° |
| 2026-04-19 04:12 | 45.52043 | -122.92891 | 583 ft | 119 kts | 322° |
| 2026-04-19 04:12 | 45.52692 | -122.93568 | 428 ft | 117 kts | 323° |
| 2026-04-19 04:12 | 45.53337 | -122.94252 | 274 ft | 115 kts | 324° |
| 2026-04-19 04:13 | 45.53960 | -122.94907 | 217 ft | 100 kts | 323° |
| 2026-04-19 04:13 | 45.54365 | -122.95331 | 208 ft | 58 kts | 323° |
| 2026-04-19 04:13 | 45.54585 | -122.95574 | 210 ft | 9 kts | 272° |
| 2026-04-19 04:13 | 45.54567 | -122.95593 | 206 ft | 8 kts | 204° |
| 2026-04-19 04:14 | 45.54536 | -122.95635 | 206 ft | 0 kts | 231° |
| 2026-04-19 04:14 | 45.54535 | -122.95637 | 210 ft | 1 kts | 231° |
| 2026-04-19 04:14 | 45.54531 | -122.95643 | 211 ft | 1 kts | 231° |
| 2026-04-19 04:14 | 45.54500 | -122.95654 | 211 ft | 8 kts | 153° |
| 2026-04-19 04:15 | 45.54442 | -122.95599 | 209 ft | 13 kts | 142° |
| 2026-04-19 04:15 | 45.54371 | -122.95526 | 206 ft | 11 kts | 142° |
| 2026-04-19 04:15 | 45.54316 | -122.95473 | 211 ft | 5 kts | 171° |
| 2026-04-19 04:15 | 45.54279 | -122.95531 | 206 ft | 12 kts | 236° |
| 2026-04-19 04:16 | 45.54272 | -122.95585 | 206 ft | 9 kts | 327° |
| 2026-04-19 04:16 | 45.54295 | -122.95599 | 210 ft | 0 kts | 337° |